Time;durP1;ratioP1;P1;durP2;ratioP2;P2;SDS_P1;SDS_P2;PMS_P1;PMS_P2;Temp;Humidity;BMP_temperature;BMP_pressure;BME280_temperature;BME280_humidity;BME280_pressure;Samples;Min_cycle;Max_cycle;Signal;HPM_P1;HPM_P2
2023/09/18 00:02:27;;;;;;;6.30;3.90;;;20.20;98.00;;;;;;5053522;28;20480;-89
2023/09/18 00:04:55;;;;;;;9.83;3.90;;;20.20;98.00;;;;;;5053406;28;20527;-89
2023/09/18 00:07:22;;;;;;;7.00;3.90;;;20.00;98.00;;;;;;5053704;28;20450;-89
2023/09/18 00:09:51;;;;;;;8.30;4.40;;;20.00;98.00;;;;;;5053006;28;20466;-89
2023/09/18 00:12:18;;;;;;;6.40;3.90;;;20.10;98.00;;;;;;5053642;28;20464;-88
2023/09/18 00:14:48;;;;;;;6.20;4.07;;;20.10;98.00;;;;;;5053247;28;20489;-88
2023/09/18 00:17:16;;;;;;;6.97;4.37;;;20.20;98.00;;;;;;5053250;28;20457;-89
2023/09/18 00:19:45;;;;;;;5.40;3.60;;;20.30;98.00;;;;;;5052844;28;20995;-89
2023/09/18 00:22:12;;;;;;;7.43;4.33;;;20.20;98.00;;;;;;5053528;28;20461;-89
2023/09/18 00:24:39;;;;;;;7.30;3.83;;;20.20;98.00;;;;;;5053137;28;20485;-89
2023/09/18 00:27:06;;;;;;;11.77;4.60;;;20.20;98.00;;;;;;5053137;28;20559;-89
2023/09/18 00:29:33;;;;;;;5.40;3.70;;;20.00;98.00;;;;;;5052475;28;20504;-89
2023/09/18 00:32:00;;;;;;;6.67;3.83;;;19.90;98.00;;;;;;5052647;28;20488;-89
2023/09/18 00:34:27;;;;;;;6.80;3.63;;;19.90;98.00;;;;;;5052909;28;20484;-89
2023/09/18 00:36:56;;;;;;;13.47;3.70;;;19.90;98.00;;;;;;5053008;28;20468;-88
2023/09/18 00:39:23;;;;;;;6.43;4.00;;;19.80;98.00;;;;;;5052403;28;20454;-89
2023/09/18 00:41:53;;;;;;;5.60;3.80;;;19.70;98.00;;;;;;5052595;28;20465;-88
2023/09/18 00:44:20;;;;;;;6.00;3.53;;;19.80;98.00;;;;;;5052984;28;20519;-88
2023/09/18 00:46:48;;;;;;;6.40;3.90;;;19.70;98.00;;;;;;5052726;28;20458;-88
2023/09/18 00:49:15;;;;;;;9.37;3.93;;;19.80;98.00;;;;;;5052178;28;20490;-89
2023/09/18 00:51:43;;;;;;;6.80;3.90;;;19.90;98.00;;;;;;5052701;28;20461;-89
2023/09/18 00:54:12;;;;;;;5.53;3.80;;;19.90;98.00;;;;;;5052501;28;20535;-89
2023/09/18 00:56:38;;;;;;;6.03;4.03;;;20.10;98.00;;;;;;5052601;28;20953;-89
2023/09/18 00:59:05;;;;;;;6.90;3.90;;;19.90;98.00;;;;;;5051950;28;20957;-89
2023/09/18 01:01:33;;;;;;;5.90;3.90;;;19.80;98.00;;;;;;5052203;28;20462;-88
2023/09/18 01:04:01;;;;;;;6.10;3.50;;;19.70;98.00;;;;;;5052063;28;20484;-89
2023/09/18 01:06:30;;;;;;;5.53;3.60;;;19.70;98.00;;;;;;5052666;28;20788;-89
2023/09/18 01:08:57;;;;;;;7.70;3.97;;;19.70;98.00;;;;;;5052007;28;20543;-88
2023/09/18 01:11:31;;;;;;;6.37;3.80;;;19.90;98.00;;;;;;5052506;28;20464;-89
2023/09/18 01:14:06;;;;;;;6.80;4.10;;;20.10;98.00;;;;;;5052353;28;20519;-89
2023/09/18 01:16:40;;;;;;;5.40;3.50;;;19.80;98.00;;;;;;5052433;28;20462;-88
2023/09/18 01:19:07;;;;;;;6.03;3.77;;;19.80;98.00;;;;;;5051963;28;20451;-88
2023/09/18 01:21:34;;;;;;;7.60;4.30;;;19.80;98.00;;;;;;5052067;28;20453;-89
2023/09/18 01:24:03;;;;;;;7.73;3.90;;;19.80;98.00;;;;;;5049620;28;20511;-89
2023/09/18 01:26:30;;;;;;;6.70;3.93;;;19.80;98.00;;;;;;5052207;28;20480;-89
2023/09/18 01:28:57;;;;;;;5.70;3.87;;;19.80;98.00;;;;;;5051333;28;20482;-88
2023/09/18 01:31:26;;;;;;;8.03;3.87;;;19.70;98.00;;;;;;5052064;28;20466;-89
2023/09/18 01:33:54;;;;;;;6.07;3.97;;;19.80;98.00;;;;;;5051301;28;20457;-89
2023/09/18 01:36:22;;;;;;;7.40;4.23;;;19.80;98.00;;;;;;5052086;28;20468;-89
2023/09/18 01:38:50;;;;;;;6.00;4.10;;;19.70;98.00;;;;;;5051209;28;20838;-89
2023/09/18 01:41:19;;;;;;;7.37;4.10;;;19.70;98.00;;;;;;5051678;28;20473;-89
2023/09/18 01:43:46;;;;;;;7.77;4.00;;;19.70;98.00;;;;;;5051553;28;20465;-89
2023/09/18 01:46:14;;;;;;;6.67;3.70;;;19.80;98.00;;;;;;5051485;28;21017;-89
2023/09/18 01:48:47;;;;;;;6.20;3.83;;;19.80;98.00;;;;;;5050982;28;20512;-89
2023/09/18 01:51:15;;;;;;;11.13;4.20;;;19.90;98.00;;;;;;5051579;28;20523;-88
2023/09/18 01:53:42;;;;;;;6.80;4.20;;;19.90;98.00;;;;;;5051592;28;20465;-88
2023/09/18 01:56:09;;;;;;;7.23;4.10;;;19.90;98.00;;;;;;5051352;28;20465;-89
2023/09/18 01:58:38;;;;;;;6.40;4.00;;;19.80;98.00;;;;;;5050697;28;20461;-89
2023/09/18 02:01:05;;;;;;;6.27;3.80;;;19.90;98.00;;;;;;5051072;28;20462;-88
2023/09/18 02:03:32;;;;;;;6.10;3.80;;;19.90;98.00;;;;;;5051333;28;20462;-88
2023/09/18 02:05:59;;;;;;;7.03;4.20;;;20.10;98.00;;;;;;5051045;28;20472;-88
2023/09/18 02:08:26;;;;;;;6.43;4.27;;;20.20;98.00;;;;;;5051100;28;20481;-89
2023/09/18 02:10:53;;;;;;;6.80;3.83;;;20.20;98.00;;;;;;5050635;28;20450;-89
2023/09/18 02:13:20;;;;;;;8.73;4.23;;;20.20;98.00;;;;;;5051035;28;20949;-89
2023/09/18 02:15:48;;;;;;;5.30;3.90;;;20.20;98.00;;;;;;5050230;28;20466;-89
2023/09/18 02:18:16;;;;;;;6.63;3.80;;;20.20;98.00;;;;;;5051003;28;20458;-88
2023/09/18 02:20:44;;;;;;;7.77;3.90;;;20.20;98.00;;;;;;5050482;28;20507;-89
2023/09/18 02:23:11;;;;;;;7.43;3.60;;;20.20;98.00;;;;;;5050952;28;20795;-89
2023/09/18 02:25:40;;;;;;;7.20;4.30;;;20.30;98.00;;;;;;5051197;28;20485;-89
2023/09/18 02:28:07;;;;;;;6.10;3.70;;;20.60;98.00;;;;;;5050544;28;20461;-89
2023/09/18 02:30:34;;;;;;;7.10;4.43;;;20.60;98.00;;;;;;5050721;28;20454;-88
2023/09/18 02:33:03;;;;;;;7.03;4.23;;;20.40;98.00;;;;;;5050700;28;21016;-88
2023/09/18 02:35:30;;;;;;;10.77;4.17;;;20.30;98.00;;;;;;5051093;28;20477;-89
2023/09/18 02:37:57;;;;;;;7.10;3.90;;;20.20;98.00;;;;;;5050728;28;20886;-89
2023/09/18 02:40:24;;;;;;;8.70;4.40;;;20.00;98.00;;;;;;5050299;28;20452;-88
2023/09/18 02:42:51;;;;;;;6.43;3.57;;;19.90;98.00;;;;;;5050542;28;20461;-89
2023/09/18 02:45:18;;;;;;;6.20;3.97;;;19.90;98.00;;;;;;5050803;28;20477;-89
2023/09/18 02:47:45;;;;;;;7.03;4.00;;;19.80;98.00;;;;;;5050853;28;20458;-89
2023/09/18 02:50:13;;;;;;;9.43;4.10;;;19.80;98.00;;;;;;5050206;28;20515;-89
2023/09/18 02:52:41;;;;;;;7.80;4.07;;;19.80;98.00;;;;;;5050900;28;20979;-89
2023/09/18 02:55:09;;;;;;;5.60;3.73;;;19.70;98.00;;;;;;5051341;28;20485;-89
2023/09/18 02:57:37;;;;;;;7.30;3.60;;;19.70;98.00;;;;;;5050711;28;20458;-89
2023/09/18 03:00:05;;;;;;;7.63;3.40;;;19.70;98.00;;;;;;5050129;28;20503;-89
2023/09/18 03:02:32;;;;;;;6.03;3.47;;;19.80;98.00;;;;;;5050763;28;20453;-89
2023/09/18 03:04:59;;;;;;;7.63;3.93;;;19.90;98.00;;;;;;5050362;28;21023;-89
2023/09/18 03:07:29;;;;;;;6.80;3.50;;;19.90;98.00;;;;;;5050595;28;20468;-89
2023/09/18 03:09:56;;;;;;;7.73;4.00;;;20.00;98.00;;;;;;5049656;28;20516;-89
2023/09/18 03:12:23;;;;;;;5.77;3.30;;;19.90;98.00;;;;;;5050450;28;20666;-88
2023/09/18 03:14:50;;;;;;;4.97;3.27;;;19.90;98.00;;;;;;5050340;28;20482;-89
2023/09/18 03:17:17;;;;;;;5.50;3.03;;;20.00;98.00;;;;;;5050721;28;20988;-88
2023/09/18 03:19:44;;;;;;;8.37;3.33;;;20.00;98.00;;;;;;5050083;28;20457;-89
2023/09/18 03:22:11;;;;;;;6.90;3.27;;;20.00;98.00;;;;;;5050238;28;20976;-89
2023/09/18 03:24:39;;;;;;;4.60;2.90;;;20.00;98.00;;;;;;5050134;28;20535;-88
2023/09/18 03:27:06;;;;;;;9.03;3.10;;;19.90;98.00;;;;;;5050911;28;21011;-88
2023/09/18 03:29:34;;;;;;;6.60;3.10;;;19.90;98.00;;;;;;5053426;28;20489;-89
2023/09/18 03:32:01;;;;;;;4.50;2.40;;;19.90;98.00;;;;;;5053900;28;20571;-89
2023/09/18 03:34:28;;;;;;;4.33;2.70;;;19.80;98.00;;;;;;5053965;28;20465;-88
2023/09/18 03:36:55;;;;;;;5.47;2.90;;;19.90;98.00;;;;;;5054268;28;20489;-88
2023/09/18 03:39:22;;;;;;;6.67;3.00;;;19.80;98.00;;;;;;5053348;28;20507;-89
2023/09/18 03:41:50;;;;;;;6.63;3.10;;;19.70;98.00;;;;;;5053805;28;20461;-88
2023/09/18 03:44:17;;;;;;;9.63;3.40;;;19.70;98.00;;;;;;5053940;28;20488;-88
2023/09/18 03:46:44;;;;;;;7.57;2.93;;;19.70;98.00;;;;;;5053737;28;20464;-89
2023/09/18 03:49:11;;;;;;;7.00;3.07;;;19.60;98.00;;;;;;5052969;28;20901;-88
2023/09/18 03:51:38;;;;;;;7.40;3.00;;;19.60;98.00;;;;;;5053699;28;20492;-89
2023/09/18 03:54:05;;;;;;;6.30;2.90;;;19.50;98.00;;;;;;5053391;28;20477;-88
2023/09/18 03:56:32;;;;;;;6.17;3.20;;;19.50;98.00;;;;;;5053715;28;20535;-88
2023/09/18 03:59:01;;;;;;;6.97;3.40;;;19.30;98.00;;;;;;5053277;28;20465;-88
2023/09/18 04:01:28;;;;;;;7.60;3.40;;;19.40;98.00;;;;;;5053582;28;20577;-89
2023/09/18 04:03:55;;;;;;;11.37;3.10;;;19.40;98.00;;;;;;5053305;28;20568;-89
2023/09/18 04:06:24;;;;;;;5.40;2.80;;;19.50;98.00;;;;;;5053572;28;20515;-88
2023/09/18 04:08:51;;;;;;;7.47;3.00;;;19.40;98.00;;;;;;5052691;28;20486;-88
2023/09/18 04:11:19;;;;;;;9.93;3.00;;;19.50;98.00;;;;;;5053466;28;20522;-88
2023/09/18 04:13:46;;;;;;;5.87;3.03;;;19.60;98.00;;;;;;5053216;28;20979;-89
2023/09/18 04:16:17;;;;;;;5.60;3.00;;;19.80;98.00;;;;;;5053194;28;20508;-89
2023/09/18 04:18:44;;;;;;;5.30;3.33;;;19.70;98.00;;;;;;5053103;28;20486;-89
2023/09/18 04:21:11;;;;;;;5.43;3.57;;;19.60;98.00;;;;;;5053329;28;21039;-89
2023/09/18 04:23:38;;;;;;;5.30;3.10;;;19.50;98.00;;;;;;5053032;28;20515;-89
2023/09/18 04:26:05;;;;;;;4.67;2.60;;;19.50;98.00;;;;;;5052882;28;20810;-89
2023/09/18 04:28:32;;;;;;;9.10;3.07;;;19.40;98.00;;;;;;5052773;28;20516;-89
2023/09/18 04:30:59;;;;;;;4.47;2.93;;;19.40;98.00;;;;;;5052820;28;20493;-89
2023/09/18 04:33:28;;;;;;;4.97;3.00;;;19.50;98.00;;;;;;5052937;28;20465;-88
2023/09/18 04:35:55;;;;;;;6.60;3.23;;;19.60;98.00;;;;;;5052953;28;20576;-88
2023/09/18 04:38:23;;;;;;;5.83;3.33;;;19.50;98.00;;;;;;5052889;28;20463;-88
2023/09/18 04:40:50;;;;;;;7.50;3.37;;;19.40;98.00;;;;;;5051970;28;20544;-89
2023/09/18 04:43:17;;;;;;;6.40;3.57;;;19.50;98.00;;;;;;5052854;28;20466;-89
2023/09/18 04:45:45;;;;;;;8.17;3.30;;;19.60;98.00;;;;;;5052566;28;20478;-89
2023/09/18 04:48:12;;;;;;;11.17;3.20;;;19.50;98.00;;;;;;5052894;28;20458;-89
2023/09/18 04:50:40;;;;;;;8.23;3.47;;;19.40;98.00;;;;;;5052174;28;20513;-89
2023/09/18 04:53:08;;;;;;;4.77;3.17;;;19.30;98.00;;;;;;5052559;28;20879;-88
2023/09/18 04:55:38;;;;;;;5.90;3.27;;;19.30;98.00;;;;;;5052658;28;20474;-88
2023/09/18 04:58:06;;;;;;;5.83;3.50;;;19.30;98.00;;;;;;5052356;28;20560;-89
2023/09/18 05:00:33;;;;;;;13.47;4.00;;;19.30;98.00;;;;;;5051881;28;20507;-89
2023/09/18 05:03:03;;;;;;;4.60;3.00;;;19.30;98.00;;;;;;5052661;28;20461;-88
2023/09/18 05:05:30;;;;;;;6.57;3.40;;;19.30;98.00;;;;;;5052300;28;20480;-89
2023/09/18 05:07:58;;;;;;;4.40;2.97;;;19.30;98.00;;;;;;5052308;28;20963;-89
2023/09/18 05:10:25;;;;;;;6.93;3.40;;;19.30;98.00;;;;;;5051642;28;20555;-89
2023/09/18 05:12:58;;;;;;;8.50;3.70;;;19.30;98.00;;;;;;5052486;28;20460;-89
2023/09/18 05:15:26;;;;;;;7.47;3.27;;;19.30;98.00;;;;;;5052553;28;20474;-88
2023/09/18 05:17:56;;;;;;;5.17;2.60;;;19.50;98.00;;;;;;5051981;28;20458;-89
2023/09/18 05:20:24;;;;;;;5.43;3.20;;;19.50;98.00;;;;;;5051828;28;21004;-88
2023/09/18 05:22:53;;;;;;;6.40;3.43;;;19.50;98.00;;;;;;5052060;28;20486;-89
2023/09/18 05:25:23;;;;;;;4.77;3.20;;;19.50;98.00;;;;;;5051809;28;20520;-88
2023/09/18 05:27:55;;;;;;;6.53;3.40;;;19.50;98.00;;;;;;5052639;28;20518;-88
2023/09/18 05:30:25;;;;;;;4.93;3.07;;;19.50;98.00;;;;;;5051307;28;20485;-89
2023/09/18 05:32:52;;;;;;;4.73;3.10;;;19.40;98.00;;;;;;5052214;28;20826;-89
2023/09/18 05:35:19;;;;;;;6.43;3.30;;;19.30;98.00;;;;;;5052327;28;20543;-88
2023/09/18 05:37:46;;;;;;;4.87;2.97;;;19.20;98.00;;;;;;5052547;28;20462;-89
2023/09/18 05:40:14;;;;;;;15.23;5.20;;;19.30;98.00;;;;;;5052229;28;20868;-90
2023/09/18 05:42:44;;;;;;;8.20;3.50;;;19.30;98.00;;;;;;5053913;28;20449;-90
2023/09/18 05:45:12;;;;;;;6.20;2.97;;;19.30;98.00;;;;;;5054311;28;20510;-89
2023/09/18 05:47:45;;;;;;;9.67;5.67;;;19.30;98.00;;;;;;5054687;28;20544;-90
2023/09/18 05:50:15;;;;;;;8.43;3.50;;;19.30;98.00;;;;;;5054112;28;20999;-89
2023/09/18 05:52:43;;;;;;;5.50;3.30;;;19.50;98.00;;;;;;5053449;28;20461;-89
2023/09/18 05:55:10;;;;;;;6.90;3.73;;;19.50;98.00;;;;;;5054578;28;20580;-89
2023/09/18 05:57:38;;;;;;;9.67;4.03;;;19.70;98.00;;;;;;5055017;28;20549;-89
2023/09/18 06:00:08;;;;;;;6.43;3.50;;;19.90;98.00;;;;;;5054817;28;20469;-89
2023/09/18 06:02:35;;;;;;;6.40;3.90;;;19.90;98.00;;;;;;5054792;28;20466;-88
2023/09/18 06:05:06;;;;;;;13.03;4.53;;;19.80;98.00;;;;;;5053120;28;20477;-89
2023/09/18 06:07:34;;;;;;;10.30;5.40;;;19.70;98.00;;;;;;5053339;28;20465;-89
2023/09/18 06:10:01;;;;;;;10.60;5.70;;;19.80;98.00;;;;;;5053135;28;20547;-90
2023/09/18 06:12:28;;;;;;;10.60;4.27;;;19.80;98.00;;;;;;5053579;28;20810;-90
2023/09/18 06:14:55;;;;;;;9.93;3.90;;;19.80;98.00;;;;;;5053412;28;20482;-90
2023/09/18 06:17:24;;;;;;;6.70;4.07;;;19.80;98.00;;;;;;5053307;28;20468;-90
2023/09/18 06:19:52;;;;;;;6.40;3.90;;;19.80;98.00;;;;;;5052784;28;20476;-89
2023/09/18 06:22:19;;;;;;;6.60;3.80;;;19.90;98.00;;;;;;5052800;28;20465;-90
2023/09/18 06:24:46;;;;;;;6.13;3.30;;;19.90;98.00;;;;;;5053407;28;20478;-90
2023/09/18 06:27:13;;;;;;;9.73;3.73;;;19.90;98.00;;;;;;5052878;28;21122;-90
2023/09/18 06:29:42;;;;;;;5.57;3.40;;;20.00;98.00;;;;;;5052720;28;20498;-90
2023/09/18 06:32:09;;;;;;;5.33;3.30;;;20.20;98.00;;;;;;5053339;28;20453;-91
2023/09/18 06:34:38;;;;;;;5.83;3.23;;;20.20;98.00;;;;;;5053998;28;20482;-90
2023/09/18 06:37:07;;;;;;;5.50;3.37;;;20.10;98.00;;;;;;5053012;28;20900;-90
2023/09/18 06:39:34;;;;;;;6.63;3.40;;;20.10;98.00;;;;;;5053135;28;20860;-90
2023/09/18 06:42:01;;;;;;;8.50;3.70;;;20.20;98.00;;;;;;5053209;28;20913;-90
2023/09/18 06:44:28;;;;;;;4.90;3.20;;;20.20;98.00;;;;;;5052753;28;21226;-90
2023/09/18 06:46:55;;;;;;;8.20;3.03;;;20.30;98.00;;;;;;5053177;28;20468;-89
2023/09/18 06:49:22;;;;;;;10.50;4.23;;;20.30;98.00;;;;;;5051191;28;20449;-88
2023/09/18 06:51:51;;;;;;;7.60;4.00;;;20.40;98.00;;;;;;5052200;28;20454;-88
2023/09/18 06:54:18;;;;;;;5.90;3.70;;;20.40;98.00;;;;;;5051923;28;20478;-87
2023/09/18 06:56:45;;;;;;;7.83;3.93;;;20.50;98.00;;;;;;5052575;28;21113;-89
2023/09/18 06:59:12;;;;;;;11.50;4.27;;;20.40;98.00;;;;;;5051971;28;20863;-88
2023/09/18 07:01:40;;;;;;;8.87;5.10;;;20.60;98.00;;;;;;5052529;28;21032;-88
2023/09/18 07:04:07;;;;;;;5.87;4.00;;;20.50;98.00;;;;;;5055870;28;20478;-88
2023/09/18 07:06:34;;;;;;;9.30;4.70;;;20.40;98.00;;;;;;5055967;28;20481;-88
2023/09/18 07:09:04;;;;;;;7.40;4.37;;;20.40;98.00;;;;;;5044991;28;20459;-89
2023/09/18 07:11:31;;;;;;;8.87;4.07;;;20.60;98.00;;;;;;5035842;28;20494;-89
2023/09/18 07:13:59;;;;;;;8.67;4.53;;;20.60;98.00;;;;;;5036003;28;20489;-88
2023/09/18 07:16:26;;;;;;;8.30;4.20;;;20.60;98.00;;;;;;5035721;28;20501;-88
2023/09/18 07:18:53;;;;;;;10.73;5.37;;;20.80;98.00;;;;;;5035572;28;21049;-88
2023/09/18 07:21:20;;;;;;;6.70;4.13;;;20.80;98.00;;;;;;5035653;28;21100;-89
2023/09/18 07:23:48;;;;;;;9.23;4.43;;;20.90;98.00;;;;;;5035490;28;20456;-89
2023/09/18 07:26:16;;;;;;;7.10;3.33;;;20.90;98.00;;;;;;5035493;28;20465;-88
2023/09/18 07:28:44;;;;;;;4.67;2.80;;;21.00;98.00;;;;;;5035419;28;20451;-89
2023/09/18 07:31:14;;;;;;;7.57;2.90;;;21.00;98.00;;;;;;5034746;28;20469;-88
2023/09/18 07:33:41;;;;;;;4.97;2.90;;;21.10;98.00;;;;;;5035060;28;20450;-89
2023/09/18 07:36:09;;;;;;;4.70;2.57;;;21.30;98.00;;;;;;5034296;28;20554;-90
2023/09/18 07:38:37;;;;;;;5.20;3.10;;;21.30;98.00;;;;;;5033504;28;20741;-89
2023/09/18 07:41:04;;;;;;;3.53;2.60;;;21.40;98.00;;;;;;5034019;28;20493;-89
2023/09/18 07:43:32;;;;;;;9.63;2.70;;;21.40;98.00;;;;;;5033238;28;20481;-89
2023/09/18 07:46:01;;;;;;;4.60;2.73;;;21.50;98.00;;;;;;5034035;28;20490;-87
2023/09/18 07:48:28;;;;;;;5.00;2.50;;;21.50;98.00;;;;;;5034085;28;20459;-89
2023/09/18 07:50:55;;;;;;;3.53;2.37;;;21.50;98.00;;;;;;5032704;28;20482;-88
2023/09/18 07:53:22;;;;;;;5.67;2.40;;;21.50;98.00;;;;;;5053093;28;20458;-88
2023/09/18 07:55:56;;;;;;;4.20;2.17;;;21.50;98.00;;;;;;5053262;28;20855;-89
2023/09/18 07:58:24;;;;;;;8.67;2.53;;;21.50;98.00;;;;;;5053516;28;20453;-88
2023/09/18 08:00:53;;;;;;;7.73;2.70;;;21.60;98.00;;;;;;5052913;28;20496;-88
2023/09/18 08:03:22;;;;;;;3.20;2.20;;;21.70;98.00;;;;;;5053031;28;20859;-88
2023/09/18 08:05:51;;;;;;;5.40;2.37;;;21.80;98.00;;;;;;5052659;28;20481;-88
2023/09/18 08:08:20;;;;;;;6.27;2.10;;;21.80;98.00;;;;;;5054640;28;20456;-89
2023/09/18 08:10:47;;;;;;;10.47;2.20;;;21.90;98.00;;;;;;5053967;28;20882;-88
2023/09/18 08:13:14;;;;;;;5.50;2.20;;;21.90;98.00;;;;;;5053970;28;20457;-88
2023/09/18 08:15:41;;;;;;;3.50;2.30;;;22.00;98.00;;;;;;5053339;28;20482;-88
2023/09/18 08:18:10;;;;;;;4.83;1.87;;;22.00;98.00;;;;;;5054573;28;20465;-88
2023/09/18 08:20:38;;;;;;;4.10;2.20;;;22.00;98.00;;;;;;5053549;28;20453;-89
2023/09/18 08:23:05;;;;;;;3.73;2.20;;;22.20;98.00;;;;;;5054408;28;20490;-89
2023/09/18 08:25:32;;;;;;;6.20;2.10;;;22.30;98.00;;;;;;5054375;28;21078;-89
2023/09/18 08:28:00;;;;;;;5.17;2.00;;;22.40;98.00;;;;;;5053943;28;20473;-89
2023/09/18 08:30:27;;;;;;;6.43;2.10;;;22.40;98.00;;;;;;5053056;28;20534;-89
2023/09/18 08:32:54;;;;;;;3.13;1.83;;;22.40;98.00;;;;;;5054155;28;20878;-87
2023/09/18 08:35:23;;;;;;;4.60;2.00;;;22.30;98.00;;;;;;5051887;28;20481;-88
2023/09/18 08:37:50;;;;;;;2.13;1.90;;;22.40;98.00;;;;;;5052301;28;20458;-87
2023/09/18 08:40:17;;;;;;;4.30;2.00;;;22.30;98.00;;;;;;5052578;28;20461;-88
2023/09/18 08:42:47;;;;;;;4.80;1.67;;;22.30;98.00;;;;;;5052407;28;20965;-88
2023/09/18 08:45:23;;;;;;;6.17;2.13;;;22.30;98.00;;;;;;5231748;22;20820;-66
2023/09/18 08:47:52;;;;;;;2.40;1.80;;;22.20;98.00;;;;;;4974462;28;20480;-66
2023/09/18 08:50:22;;;;;;;3.50;1.80;;;22.20;98.00;;;;;;4974637;28;20528;-66
2023/09/18 08:52:50;;;;;;;2.30;1.50;;;22.10;98.00;;;;;;4974751;28;20461;-65
2023/09/18 08:55:18;;;;;;;5.03;2.27;;;22.00;98.00;;;;;;4974747;28;20536;-66
2023/09/18 08:57:47;;;;;;;2.13;1.70;;;22.10;98.00;;;;;;4974710;28;20852;-66
2023/09/18 09:00:18;;;;;;;2.80;1.67;;;22.00;98.00;;;;;;4973587;28;20457;-66
2023/09/18 09:02:51;;;;;;;4.03;1.80;;;21.90;98.00;;;;;;4974689;28;20454;-67
2023/09/18 09:05:18;;;;;;;3.10;1.83;;;21.90;98.00;;;;;;4974505;28;20453;-66
2023/09/18 09:07:47;;;;;;;3.93;1.80;;;21.80;98.00;;;;;;4973517;28;20970;-66
2023/09/18 09:10:14;;;;;;;5.50;1.77;;;21.80;98.00;;;;;;4974627;28;20462;-66
2023/09/18 09:12:54;;;;;;;2.83;1.83;;;21.80;98.00;;;;;;4974732;28;20468;-66
2023/09/18 09:15:22;;;;;;;6.47;1.70;;;21.70;98.00;;;;;;4974502;28;20544;-66
2023/09/18 09:17:52;;;;;;;1.40;1.40;;;21.80;98.00;;;;;;4974343;28;20457;-66
2023/09/18 09:20:19;;;;;;;2.37;1.70;;;21.70;98.00;;;;;;4973225;28;20832;-66
2023/09/18 09:22:48;;;;;;;4.03;1.90;;;21.50;98.00;;;;;;4973215;28;21017;-64
2023/09/18 09:25:26;;;;;;;4.17;2.17;;;21.40;98.00;;;;;;4973978;28;20457;-64
2023/09/18 09:27:55;;;;;;;4.67;1.70;;;21.30;98.00;;;;;;4974079;28;20489;-64
2023/09/18 09:30:24;;;;;;;4.17;1.70;;;21.40;98.00;;;;;;4973901;28;20813;-64
2023/09/18 09:32:53;;;;;;;6.07;2.20;;;21.40;98.00;;;;;;4973973;28;20516;-64
2023/09/18 09:35:22;;;;;;;6.00;1.83;;;21.50;98.00;;;;;;4973956;28;20461;-64
2023/09/18 09:37:52;;;;;;;2.40;1.80;;;21.40;98.00;;;;;;4973669;28;20472;-64
2023/09/18 09:40:21;;;;;;;3.00;1.80;;;21.30;98.00;;;;;;4973823;28;20552;-64
2023/09/18 09:42:48;;;;;;;4.33;1.90;;;21.30;98.00;;;;;;4973888;28;20453;-64
2023/09/18 09:45:16;;;;;;;2.00;1.67;;;21.10;98.00;;;;;;4973515;28;20453;-65
2023/09/18 09:47:44;;;;;;;2.73;1.57;;;21.10;98.00;;;;;;4973374;28;20461;-64
2023/09/18 09:50:13;;;;;;;4.50;1.87;;;20.90;98.00;;;;;;4973558;28;21250;-64
2023/09/18 09:52:44;;;;;;;2.50;1.50;;;20.80;98.00;;;;;;4973599;28;20516;-64
2023/09/18 09:55:24;;;;;;;4.13;1.67;;;20.80;98.00;;;;;;4973552;28;20460;-64
2023/09/18 09:57:53;;;;;;;1.57;1.50;;;20.90;98.00;;;;;;4973520;28;20507;-64
2023/09/18 10:00:26;;;;;;;1.70;1.50;;;20.80;98.00;;;;;;4973420;28;20846;-64
2023/09/18 10:02:59;;;;;;;2.50;1.70;;;21.00;98.00;;;;;;4973378;28;20457;-64
2023/09/18 10:05:29;;;;;;;2.00;1.80;;;21.10;98.00;;;;;;4973511;28;20874;-64
2023/09/18 10:07:59;;;;;;;1.70;1.50;;;21.00;98.00;;;;;;4973368;28;20457;-64
2023/09/18 10:10:32;;;;;;;1.80;1.50;;;20.90;98.00;;;;;;4973376;28;20808;-64
2023/09/18 10:13:05;;;;;;;3.17;1.90;;;20.80;98.00;;;;;;4973385;28;20553;-64
2023/09/18 10:15:38;;;;;;;5.10;1.63;;;20.70;98.00;;;;;;4972226;28;20457;-65
2023/09/18 10:18:08;;;;;;;3.00;1.70;;;20.80;98.00;;;;;;4973251;28;20494;-64
2023/09/18 10:20:43;;;;;;;1.83;1.60;;;20.80;98.00;;;;;;4973407;28;20866;-64
2023/09/18 10:23:23;;;;;;;2.10;1.60;;;21.00;98.00;;;;;;4972066;28;20802;-64
2023/09/18 10:25:54;;;;;;;1.70;1.50;;;21.20;98.00;;;;;;4973352;28;20521;-64
2023/09/18 10:28:23;;;;;;;2.83;1.60;;;21.20;98.00;;;;;;4973469;28;20512;-64
2023/09/18 10:30:52;;;;;;;2.10;1.60;;;21.10;98.00;;;;;;4973346;28;20603;-64
2023/09/18 10:33:20;;;;;;;3.60;1.80;;;21.10;98.00;;;;;;4973075;28;20520;-64
2023/09/18 10:35:47;;;;;;;2.20;1.83;;;21.20;98.00;;;;;;4972905;28;20462;-64
2023/09/18 10:38:16;;;;;;;3.87;2.30;;;21.00;98.00;;;;;;4972653;28;20472;-64
2023/09/18 10:40:44;;;;;;;1.90;1.60;;;20.90;98.00;;;;;;4973341;28;20453;-64
2023/09/18 10:43:20;;;;;;;3.57;1.80;;;20.80;98.00;;;;;;4973239;28;20460;-65
2023/09/18 10:45:48;;;;;;;2.90;1.90;;;20.70;98.00;;;;;;4972955;28;20527;-64
2023/09/18 10:48:16;;;;;;;2.03;1.50;;;20.70;98.00;;;;;;4973125;28;20457;-65
2023/09/18 10:50:45;;;;;;;2.47;1.80;;;20.60;98.00;;;;;;4972981;28;20458;-64
2023/09/18 10:53:13;;;;;;;3.57;1.80;;;20.70;98.00;;;;;;4973019;28;20464;-65
2023/09/18 10:55:43;;;;;;;7.30;2.23;;;20.60;98.00;;;;;;4973250;28;20496;-64
2023/09/18 10:58:10;;;;;;;3.77;2.30;;;20.60;98.00;;;;;;4972055;28;20572;-64
2023/09/18 11:00:38;;;;;;;3.70;2.10;;;20.70;98.00;;;;;;4973157;28;20446;-64
2023/09/18 11:03:14;;;;;;;2.60;1.90;;;20.70;98.00;;;;;;4973056;28;20449;-65
2023/09/18 11:05:41;;;;;;;2.73;1.50;;;20.70;98.00;;;;;;4973036;28;20468;-64
2023/09/18 11:08:35;;;;;;;7.50;1.70;;;20.60;98.00;;;;;;4972663;28;20503;-64
2023/09/18 11:11:09;;;;;;;2.67;1.70;;;20.60;98.00;;;;;;4927616;28;20516;-64
2023/09/18 11:13:39;;;;;;;3.17;1.77;;;20.60;98.00;;;;;;4971906;28;20457;-64
2023/09/18 11:16:34;;;;;;;2.30;1.63;;;20.50;98.00;;;;;;4972619;28;20887;-64
2023/09/18 11:19:10;;;;;;;2.20;1.60;;;20.60;98.00;;;;;;4972271;28;20475;-64
2023/09/18 11:21:38;;;;;;;2.53;1.60;;;20.50;98.00;;;;;;4972854;28;20449;-65
2023/09/18 11:24:11;;;;;;;2.10;1.57;;;20.40;98.00;;;;;;4972805;28;20454;-64
2023/09/18 11:26:41;;;;;;;5.43;1.93;;;20.40;98.00;;;;;;4972703;28;20462;-67
2023/09/18 11:29:10;;;;;;;3.20;1.70;;;20.40;98.00;;;;;;4972605;28;20489;-67
2023/09/18 11:31:47;;;;;;;2.00;1.50;;;20.30;98.00;;;;;;4972475;28;20488;-73
2023/09/18 11:34:22;;;;;;;4.83;2.13;;;20.40;98.00;;;;;;5204071;22;20513;-74
2023/09/18 11:36:49;;;;;;;8.20;2.30;;;20.30;98.00;;;;;;5030371;28;20533;-67
2023/09/18 11:39:36;;;;;;;2.50;1.70;;;20.30;98.00;;;;;;5030987;28;20458;-66
2023/09/18 11:42:11;;;;;;;1.90;1.70;;;20.30;98.00;;;;;;5030485;28;20851;-64
2023/09/18 11:44:42;;;;;;;1.90;1.50;;;20.30;98.00;;;;;;5030715;28;20453;-65
2023/09/18 11:47:19;;;;;;;1.77;1.60;;;20.30;98.00;;;;;;5030740;28;20458;-65
2023/09/18 11:49:54;;;;;;;1.77;1.53;;;20.30;98.00;;;;;;5033871;28;20827;-65
2023/09/18 11:52:22;;;;;;;3.10;1.60;;;20.30;98.00;;;;;;5034059;28;21058;-64
2023/09/18 11:54:50;;;;;;;5.00;2.33;;;20.40;98.00;;;;;;5034071;28;20500;-62
2023/09/18 11:57:19;;;;;;;2.07;1.80;;;20.30;98.00;;;;;;5034065;28;20819;-64
2023/09/18 11:59:50;;;;;;;6.63;1.60;;;20.30;98.00;;;;;;5034057;28;20492;-64
2023/09/18 12:02:34;;;;;;;1.80;1.50;;;20.30;98.00;;;;;;5033903;28;20955;-65
2023/09/18 12:05:08;;;;;;;2.37;1.60;;;20.20;98.00;;;;;;5033942;28;20494;-65
2023/09/18 12:07:35;;;;;;;2.90;1.73;;;20.20;98.00;;;;;;5034057;28;20443;-64
2023/09/18 12:10:07;;;;;;;2.30;1.60;;;20.20;98.00;;;;;;5033803;28;20695;-65
2023/09/18 12:12:34;;;;;;;2.10;1.60;;;20.30;98.00;;;;;;5033720;28;20522;-65
2023/09/18 12:15:01;;;;;;;1.80;1.80;;;20.40;98.00;;;;;;5033743;28;20457;-65
2023/09/18 12:17:30;;;;;;;1.60;1.40;;;20.40;98.00;;;;;;5033837;28;20458;-65
2023/09/18 12:19:57;;;;;;;3.07;1.40;;;20.50;98.00;;;;;;5033530;28;20446;-63
2023/09/18 12:22:36;;;;;;;1.60;1.50;;;20.50;98.00;;;;;;5033729;28;20529;-65
2023/09/18 12:25:11;;;;;;;2.00;1.67;;;20.50;98.00;;;;;;5033546;28;20895;-64
2023/09/18 12:27:39;;;;;;;2.20;1.60;;;20.50;98.00;;;;;;5033772;28;20507;-63
2023/09/18 12:30:07;;;;;;;2.33;1.63;;;20.50;98.00;;;;;;5033275;28;20505;-64
2023/09/18 12:32:37;;;;;;;1.83;1.50;;;20.60;98.00;;;;;;5033647;28;20489;-65
2023/09/18 12:35:06;;;;;;;3.10;1.70;;;20.70;98.00;;;;;;5033525;28;20477;-64
2023/09/18 12:37:33;;;;;;;1.93;1.70;;;20.70;98.00;;;;;;5033387;28;20458;-66
2023/09/18 12:40:01;;;;;;;3.60;1.50;;;20.70;98.00;;;;;;5033321;28;20450;-65
2023/09/18 12:42:29;;;;;;;2.93;1.90;;;20.60;98.00;;;;;;5033594;28;20454;-63
2023/09/18 12:44:56;;;;;;;3.00;1.90;;;20.60;98.00;;;;;;5033530;28;20967;-63
2023/09/18 12:47:25;;;;;;;3.27;1.57;;;20.70;98.00;;;;;;5033189;28;20994;-62
2023/09/18 12:49:54;;;;;;;2.50;2.00;;;20.70;98.00;;;;;;5033124;28;20455;-63
2023/09/18 12:52:23;;;;;;;3.10;1.70;;;20.80;98.00;;;;;;5033068;28;20485;-65
2023/09/18 12:54:54;;;;;;;1.87;1.50;;;20.80;98.00;;;;;;5033146;28;20455;-64